createdAt,value
2018-10-19T00:01:14.898Z,93
2018-10-19T00:06:15.522Z,93
2018-10-19T00:11:14.943Z,93
2018-10-19T00:16:15.208Z,93
2018-10-19T00:21:15.378Z,93
2018-10-19T00:26:14.468Z,93
2018-10-19T00:31:14.993Z,93
2018-10-19T00:36:14.866Z,93
2018-10-19T00:41:14.791Z,93
2018-10-19T00:46:14.539Z,93
2018-10-19T00:51:14.828Z,93
2018-10-19T00:56:15.056Z,93
2018-10-19T01:01:14.841Z,93
2018-10-19T01:06:15.256Z,93
2018-10-19T01:11:15.516Z,93
2018-10-19T01:16:14.876Z,93
2018-10-19T01:21:15.025Z,93
2018-10-19T01:26:15.223Z,93
2018-10-19T01:31:15.271Z,93
2018-10-19T01:36:14.843Z,93
2018-10-19T01:41:15.236Z,93
2018-10-19T01:46:15.316Z,93
2018-10-19T01:51:14.610Z,93
2018-10-19T01:56:15.507Z,93
2018-10-19T02:01:14.740Z,93
2018-10-19T02:06:15.170Z,94
2018-10-19T02:11:15.539Z,94
2018-10-19T02:16:14.913Z,94
2018-10-19T02:21:15.167Z,94
2018-10-19T02:26:15.733Z,93
2018-10-19T02:31:14.866Z,93
2018-10-19T02:36:14.949Z,94
2018-10-19T02:41:15.166Z,94
2018-10-19T02:46:15.514Z,94
2018-10-19T02:51:14.595Z,94
2018-10-19T02:56:14.768Z,94
2018-10-19T03:01:14.996Z,94
2018-10-19T03:06:14.779Z,94
2018-10-19T03:11:14.925Z,94
2018-10-19T03:16:15.253Z,94
2018-10-19T03:21:15.461Z,94
2018-10-19T03:26:14.660Z,94
2018-10-19T03:31:14.850Z,94
2018-10-19T03:36:15.169Z,94
2018-10-19T03:41:15.361Z,94
2018-10-19T03:46:15.606Z,94
2018-10-19T03:51:14.960Z,94
2018-10-19T03:56:15.257Z,94
2018-10-19T04:01:15.577Z,94
2018-10-19T04:06:14.775Z,94
2018-10-19T04:11:15.422Z,94
2018-10-19T04:16:15.631Z,94
2018-10-19T04:21:14.851Z,94
2018-10-19T04:26:15.403Z,94
2018-10-19T04:31:15.029Z,94
2018-10-19T04:36:15.311Z,94
2018-10-19T04:41:15.614Z,94
2018-10-19T04:46:14.862Z,95
2018-10-19T04:51:15.189Z,95
2018-10-19T04:56:15.507Z,95
2018-10-19T05:01:15.869Z,95
2018-10-19T05:06:14.991Z,96
2018-10-19T05:11:15.344Z,96
2018-10-19T05:16:15.671Z,96
2018-10-19T05:21:15.108Z,96
2018-10-19T05:26:15.477Z,96
2018-10-19T05:31:14.794Z,96
2018-10-19T05:36:15.113Z,96
2018-10-19T05:41:15.220Z,96
2018-10-19T05:46:15.486Z,96
2018-10-19T05:51:15.547Z,96
2018-10-19T05:56:14.918Z,96
2018-10-19T06:01:15.419Z,96
2018-10-19T06:06:15.046Z,96
2018-10-19T06:11:15.166Z,96
2018-10-19T06:16:15.400Z,96
2018-10-19T06:21:15.555Z,96
2018-10-19T06:26:15.759Z,96
2018-10-19T06:31:15.937Z,96
2018-10-19T06:36:15.039Z,96
2018-10-19T06:41:15.259Z,96
2018-10-19T06:46:15.334Z,96
2018-10-19T06:51:15.455Z,96
2018-10-19T06:56:15.657Z,96
2018-10-19T07:01:15.858Z,96
2018-10-19T07:06:15.395Z,97
2018-10-19T07:11:15.677Z,97
2018-10-19T07:16:14.922Z,97
2018-10-19T07:21:14.984Z,97
2018-10-19T07:26:15.075Z,97
2018-10-19T07:31:15.134Z,97
2018-10-19T07:36:15.257Z,98
2018-10-19T07:41:15.302Z,98
2018-10-19T07:46:15.345Z,98
2018-10-19T07:51:15.296Z,98
2018-10-19T07:56:15.631Z,99
2018-10-19T08:01:16.060Z,99
2018-10-19T08:06:15.395Z,98
2018-10-19T08:11:15.618Z,98
2018-10-19T08:16:15.886Z,98
2018-10-19T08:21:15.125Z,98
2018-10-19T08:26:15.162Z,98
2018-10-19T08:31:15.168Z,98
2018-10-19T08:36:15.319Z,98
2018-10-19T08:41:15.512Z,98
2018-10-19T08:46:15.704Z,97
2018-10-19T08:51:15.828Z,97
2018-10-19T08:56:15.261Z,94
2018-10-19T09:01:15.348Z,94
2018-10-19T09:06:15.325Z,88
2018-10-19T09:11:15.423Z,88
2018-10-19T09:16:15.223Z,86
2018-10-19T09:21:15.363Z,86
2018-10-19T09:26:15.514Z,86
2018-10-19T09:31:15.520Z,86
2018-10-19T09:36:15.771Z,87
2018-10-19T09:41:15.901Z,87
2018-10-19T09:46:15.984Z,84
2018-10-19T09:51:16.123Z,84
2018-10-19T09:56:15.259Z,75
2018-10-19T10:01:15.560Z,75
2018-10-19T10:06:15.436Z,71
2018-10-19T10:11:15.291Z,71
2018-10-19T10:16:15.368Z,70
2018-10-19T10:21:15.431Z,70
2018-10-19T10:26:15.474Z,72
2018-10-19T10:31:15.931Z,72
2018-10-19T10:36:15.984Z,73
2018-10-19T10:41:16.153Z,73
2018-10-19T10:46:15.198Z,73
2018-10-19T10:51:15.378Z,73
2018-10-19T10:56:15.359Z,68
2018-10-19T11:01:15.697Z,68
2018-10-19T11:06:16.008Z,70
2018-10-19T11:11:16.156Z,70
2018-10-19T11:16:16.077Z,65
2018-10-19T11:21:16.056Z,65
2018-10-19T11:26:16.136Z,65
2018-10-19T11:31:15.419Z,65
2018-10-19T11:36:15.545Z,67
2018-10-19T11:41:15.546Z,67
2018-10-19T11:46:15.982Z,67
2018-10-19T11:51:16.092Z,67
2018-10-19T11:56:16.492Z,67
2018-10-19T12:01:15.763Z,67
2018-10-19T12:06:14.898Z,62
2018-10-19T12:11:15.980Z,62
2018-10-19T12:16:16.349Z,63
2018-10-19T12:21:15.780Z,63
2018-10-19T12:26:15.841Z,61
2018-10-19T12:31:16.119Z,61
2018-10-19T12:36:16.096Z,64
2018-10-19T12:41:15.843Z,64
2018-10-19T12:46:15.955Z,68
2018-10-19T12:51:16.197Z,68
2018-10-19T12:56:15.448Z,69
2018-10-19T13:01:15.769Z,69
2018-10-19T13:06:15.977Z,70
2018-10-19T13:11:15.991Z,70
2018-10-19T13:16:16.141Z,68
2018-10-19T13:21:16.332Z,68
2018-10-19T13:26:15.321Z,66
2018-10-19T13:31:15.466Z,66
2018-10-19T13:36:15.577Z,65
2018-10-19T13:41:15.627Z,65
2018-10-19T13:46:15.625Z,65
2018-10-19T13:51:15.783Z,65
2018-10-19T13:56:15.876Z,65
2018-10-19T14:01:16.281Z,65
2018-10-19T14:06:16.305Z,66
2018-10-19T14:11:16.021Z,66
2018-10-19T14:16:16.046Z,66
2018-10-19T14:21:16.272Z,66
2018-10-19T14:26:15.374Z,66
2018-10-19T14:31:15.609Z,66
2018-10-19T14:36:15.581Z,66
2018-10-19T14:41:16.261Z,66
2018-10-19T14:46:16.359Z,63
2018-10-19T14:51:15.491Z,63
2018-10-19T14:56:15.608Z,63
2018-10-19T15:01:15.676Z,63
2018-10-19T15:06:16.038Z,64
2018-10-19T15:11:16.468Z,64
2018-10-19T15:16:15.872Z,65
2018-10-19T15:21:15.971Z,65
2018-10-19T15:26:15.986Z,66
2018-10-19T15:31:16.108Z,66
2018-10-19T15:36:16.145Z,66
2018-10-19T15:41:16.340Z,66
2018-10-19T15:46:16.310Z,67
2018-10-19T15:51:16.316Z,67
2018-10-19T15:56:16.337Z,68
2018-10-19T16:01:16.545Z,68
2018-10-19T16:06:15.867Z,69
2018-10-19T16:11:15.553Z,69
2018-10-19T16:16:15.601Z,71
2018-10-19T16:21:15.637Z,71
2018-10-19T16:26:15.766Z,73
2018-10-19T16:31:15.812Z,73
2018-10-19T16:36:15.839Z,74
2018-10-19T16:41:15.948Z,74
2018-10-19T16:46:15.978Z,76
2018-10-19T16:51:16.080Z,76
2018-10-19T16:56:16.108Z,78
2018-10-19T17:01:16.229Z,78
2018-10-19T17:06:16.563Z,80
2018-10-19T17:11:16.425Z,80
2018-10-19T17:16:16.504Z,80
2018-10-19T17:21:16.662Z,80
2018-10-19T17:26:15.877Z,82
2018-10-19T17:31:16.133Z,82
2018-10-19T17:36:16.482Z,82
2018-10-19T17:41:15.712Z,82
2018-10-19T17:46:15.891Z,83
2018-10-19T17:51:16.078Z,83
2018-10-19T17:56:16.092Z,84
2018-10-19T18:01:16.679Z,84
2018-10-19T18:06:15.929Z,84
2018-10-19T18:11:16.565Z,84
2018-10-19T18:16:16.509Z,85
2018-10-19T18:21:16.758Z,85
2018-10-19T18:26:15.815Z,86
2018-10-19T18:31:15.959Z,86
2018-10-19T18:36:15.873Z,86
2018-10-19T18:41:15.858Z,86
2018-10-19T18:46:15.783Z,87
2018-10-19T18:51:15.757Z,87
2018-10-19T18:56:15.741Z,87
2018-10-19T19:01:15.940Z,87
2018-10-19T19:06:16.338Z,88
2018-10-19T19:11:15.868Z,88
2018-10-19T19:16:15.838Z,88
2018-10-19T19:21:15.831Z,88
2018-10-19T19:26:15.841Z,88
2018-10-19T19:31:15.981Z,88
2018-10-19T19:36:16.063Z,88
2018-10-19T19:41:16.184Z,88
2018-10-19T19:46:15.850Z,89
2018-10-19T19:51:15.849Z,89
2018-10-19T19:56:16.083Z,89
2018-10-19T20:01:16.209Z,89
2018-10-19T20:06:16.485Z,89
2018-10-19T20:11:16.581Z,89
2018-10-19T20:16:16.516Z,89
2018-10-19T20:21:16.451Z,89
2018-10-19T20:26:16.814Z,89
2018-10-19T20:31:15.943Z,89
2018-10-19T20:36:15.969Z,89
2018-10-19T20:41:16.083Z,89
2018-10-19T20:46:16.109Z,90
2018-10-19T20:51:16.103Z,90
2018-10-19T20:56:16.159Z,90
2018-10-19T21:01:16.270Z,90
2018-10-19T21:06:16.438Z,90
2018-10-19T21:11:16.260Z,90
2018-10-19T21:16:16.318Z,90
2018-10-19T21:21:16.312Z,90
2018-10-19T21:26:16.577Z,90
2018-10-19T21:31:16.948Z,90
2018-10-19T21:36:16.109Z,90
2018-10-19T21:41:16.212Z,90
2018-10-19T21:46:16.195Z,90
2018-10-19T21:51:16.194Z,90
2018-10-19T21:56:16.232Z,91
2018-10-19T22:01:16.680Z,91
2018-10-19T22:06:16.067Z,92
2018-10-19T22:11:16.792Z,92
2018-10-19T22:16:16.900Z,92
2018-10-19T22:21:16.830Z,92
2018-10-19T22:26:16.928Z,93
2018-10-19T22:31:16.138Z,93
2018-10-19T22:36:16.176Z,93
2018-10-19T22:41:16.237Z,93
2018-10-19T22:46:16.248Z,93
2018-10-19T22:51:16.246Z,93
2018-10-19T22:56:16.159Z,93
2018-10-19T23:01:16.342Z,93
2018-10-19T23:06:16.518Z,93
2018-10-19T23:11:17.101Z,93
2018-10-19T23:16:16.123Z,93
2018-10-19T23:21:16.089Z,93
2018-10-19T23:26:16.278Z,93
2018-10-19T23:31:16.469Z,93
2018-10-19T23:36:16.495Z,93
2018-10-19T23:41:16.758Z,93
2018-10-19T23:46:16.743Z,94
2018-10-19T23:51:16.772Z,94
2018-10-19T23:56:16.778Z,94
